createdAt,value
2023-01-08T00:00:03.245Z,96072.59
2023-01-08T00:03:02.311Z,96083.94
2023-01-08T00:05:39.763Z,96109.09
2023-01-08T00:08:18.482Z,96088.25
2023-01-08T00:11:11.591Z,96027.31
2023-01-08T00:14:04.953Z,96102.09
2023-01-08T00:16:39.687Z,96026.72
2023-01-08T00:19:15.222Z,96018.47
2023-01-08T00:21:49.947Z,96004.47
2023-01-08T00:24:30.359Z,96087.28
2023-01-08T00:27:15.911Z,96025.47
2023-01-08T00:30:07.760Z,96048.75
2023-01-08T00:32:39.976Z,95973.38
2023-01-08T00:35:13.108Z,96049.53
2023-01-08T00:37:49.261Z,96052.22
2023-01-08T00:40:42.606Z,96059.84
2023-01-08T00:43:17.443Z,96031.84
2023-01-08T00:46:10.504Z,95947.63
2023-01-08T00:48:42.034Z,96034.50
2023-01-08T00:51:12.535Z,95998.28
2023-01-08T00:53:46.998Z,96030.78
2023-01-08T00:56:19.293Z,95967.78
2023-01-08T00:59:11.128Z,96036.97
2023-01-08T01:01:42.328Z,95956.91
2023-01-08T01:04:12.897Z,95953.00
2023-01-08T01:06:46.932Z,95968.25
2023-01-08T01:09:18.563Z,95992.53
2023-01-08T01:11:49.547Z,95989.44
2023-01-08T01:14:19.621Z,96040.13
2023-01-08T01:17:09.473Z,96014.38
2023-01-08T01:19:39.363Z,95947.84
2023-01-08T01:22:08.441Z,95995.00
2023-01-08T01:24:42.003Z,95930.59
2023-01-08T01:27:13.067Z,95997.09
2023-01-08T01:29:44.027Z,95979.97
2023-01-08T01:32:13.876Z,95946.84
2023-01-08T01:34:44.667Z,95926.66
2023-01-08T01:37:17.948Z,95970.72
2023-01-08T01:39:49.524Z,95998.28
2023-01-08T01:42:34.677Z,95944.56
2023-01-08T01:45:04.371Z,96001.59
2023-01-08T01:47:40.279Z,95935.28
2023-01-08T01:50:13.473Z,95945.34
2023-01-08T01:52:47.349Z,96038.66
2023-01-08T01:55:19.173Z,96017.03
2023-01-08T01:57:54.268Z,96036.41
2023-01-08T02:00:24.052Z,96027.34
2023-01-08T02:02:54.703Z,95946.38
2023-01-08T02:05:23.981Z,95964.50
2023-01-08T02:07:58.986Z,96028.78
2023-01-08T02:10:37.444Z,96023.41
2023-01-08T02:13:14.571Z,95961.84
2023-01-08T02:15:54.300Z,95925.81
2023-01-08T02:18:31.157Z,95949.06
2023-01-08T02:21:04.920Z,95972.97
2023-01-08T02:23:43.629Z,95947.06
2023-01-08T02:26:21.087Z,95969.91
2023-01-08T02:28:58.180Z,95922.50
2023-01-08T02:31:29.825Z,95965.75
2023-01-08T02:33:59.129Z,95917.34
2023-01-08T02:36:46.593Z,95927.84
2023-01-08T02:39:25.741Z,95914.66
2023-01-08T02:42:07.939Z,95902.28
2023-01-08T02:44:48.435Z,95956.22
2023-01-08T02:47:26.118Z,95903.69
2023-01-08T02:50:01.875Z,95890.88
2023-01-08T02:52:34.584Z,95910.88
2023-01-08T02:55:06.034Z,95884.72
2023-01-08T02:57:37.691Z,95886.38
2023-01-08T03:00:08.523Z,95972.28
2023-01-08T03:02:41.237Z,95875.25
2023-01-08T03:05:24.300Z,95931.44
2023-01-08T03:07:53.050Z,95879.75
2023-01-08T03:10:26.709Z,95970.81
2023-01-08T03:13:01.254Z,95966.69
2023-01-08T03:15:35.594Z,95946.31
2023-01-08T03:18:10.588Z,95949.63
2023-01-08T03:20:40.335Z,95897.13
2023-01-08T03:23:12.068Z,95950.88
2023-01-08T03:25:54.490Z,95944.72
2023-01-08T03:28:46.504Z,95881.28
2023-01-08T03:31:17.202Z,95925.72
2023-01-08T03:33:48.742Z,95938.06
2023-01-08T03:36:22.330Z,95953.31
2023-01-08T03:38:58.008Z,95855.28
2023-01-08T03:41:31.037Z,95904.69
2023-01-08T03:44:00.952Z,95868.28
2023-01-08T03:46:32.718Z,95868.91
2023-01-08T03:49:03.535Z,95845.00
2023-01-08T03:51:41.055Z,95901.03
2023-01-08T03:54:14.641Z,95894.41
2023-01-08T03:56:43.667Z,95880.81
2023-01-08T03:59:14.877Z,95887.59
2023-01-08T04:01:44.756Z,95882.88
2023-01-08T04:04:13.711Z,95857.38
2023-01-08T04:06:45.928Z,95839.44
2023-01-08T04:09:14.968Z,95907.22
2023-01-08T04:11:45.221Z,95912.56
2023-01-08T04:14:15.959Z,95877.53
2023-01-08T04:16:44.939Z,95866.84
2023-01-08T04:19:14.958Z,95842.34
2023-01-08T04:21:43.801Z,95880.03
2023-01-08T04:24:14.437Z,95816.66
2023-01-08T04:26:43.292Z,95808.66
2023-01-08T04:29:12.507Z,95814.00
2023-01-08T04:31:44.014Z,95847.09
2023-01-08T04:34:13.002Z,95868.06
2023-01-08T04:36:42.067Z,95795.00
2023-01-08T04:39:12.237Z,95825.84
2023-01-08T04:41:40.962Z,95800.28
2023-01-08T04:44:11.211Z,95853.22
2023-01-08T04:46:40.504Z,95857.13
2023-01-08T04:49:13.070Z,95871.38
2023-01-08T04:51:41.716Z,95863.50
2023-01-08T04:54:10.889Z,95881.81
2023-01-08T04:56:39.527Z,95785.47
2023-01-08T04:59:08.565Z,95802.97
2023-01-08T05:01:37.167Z,95867.00
2023-01-08T05:04:28.449Z,95784.03
2023-01-08T05:06:57.158Z,95841.94
2023-01-08T05:09:30.256Z,95850.38
2023-01-08T05:11:58.642Z,95814.94
2023-01-08T05:14:27.335Z,95847.88
2023-01-08T05:16:56.089Z,95852.19
2023-01-08T05:19:26.503Z,95838.84
2023-01-08T05:21:55.055Z,95822.41
2023-01-08T05:24:25.039Z,95776.31
2023-01-08T05:26:53.682Z,95793.41
2023-01-08T05:29:22.125Z,95855.75
2023-01-08T05:31:52.146Z,95865.84
2023-01-08T05:34:21.342Z,95848.72
2023-01-08T05:36:51.257Z,95789.72
2023-01-08T05:39:20.812Z,95815.88
2023-01-08T05:41:49.520Z,95823.88
2023-01-08T05:44:18.979Z,95796.50
2023-01-08T05:46:51.370Z,95807.19
2023-01-08T05:49:24.675Z,95809.03
2023-01-08T05:51:55.678Z,95835.97
2023-01-08T05:54:58.547Z,95743.13
2023-01-08T05:57:36.740Z,95801.78
2023-01-08T06:00:10.408Z,95737.22
2023-01-08T06:02:43.296Z,95832.72
2023-01-08T06:05:12.271Z,95770.97
2023-01-08T06:07:42.733Z,95809.88
2023-01-08T06:10:15.053Z,95739.13
2023-01-08T06:12:46.762Z,95829.25
2023-01-08T06:15:16.495Z,95833.13
2023-01-08T06:18:08.466Z,95744.44
2023-01-08T06:20:45.094Z,95799.81
2023-01-08T06:23:29.101Z,95784.22
2023-01-08T06:55:02.219Z,95755.31
2023-01-08T06:58:51.438Z,95826.13
2023-01-08T07:01:46.797Z,95706.00
2023-01-08T07:04:15.783Z,95787.25
2023-01-08T07:07:09.130Z,95747.94
2023-01-08T07:09:38.351Z,95774.66
2023-01-08T07:12:14.500Z,95766.00
2023-01-08T07:14:43.322Z,95789.25
2023-01-08T07:20:42.166Z,95825.72
2023-01-08T07:23:18.015Z,95832.13
2023-01-08T07:26:12.928Z,95838.03
2023-01-08T07:28:48.506Z,95838.28
2023-01-08T07:31:20.948Z,95831.13
2023-01-08T07:33:56.124Z,95847.16
2023-01-08T07:36:34.505Z,95786.06
2023-01-08T07:39:03.995Z,95777.66
2023-01-08T07:41:44.849Z,95798.84
2023-01-08T07:44:43.908Z,95796.81
2023-01-08T07:47:15.576Z,95777.25
2023-01-08T07:49:48.482Z,95755.25
2023-01-08T07:52:18.398Z,95850.47
2023-01-08T07:54:49.440Z,95773.75
2023-01-08T07:57:19.713Z,95845.34
2023-01-08T08:00:34.259Z,95774.38
2023-01-08T08:03:16.883Z,95759.97
2023-01-08T08:05:57.333Z,95809.78
2023-01-08T08:11:33.670Z,95791.88
2023-01-08T08:14:07.900Z,95794.34
2023-01-08T08:30:09.445Z,95840.63
2023-01-08T08:37:43.384Z,95764.97
2023-01-08T08:42:24.836Z,95843.53
2023-01-08T08:45:36.364Z,95764.13
2023-01-08T09:00:21.511Z,95769.63
2023-01-08T09:54:50.372Z,95855.38
2023-01-08T09:57:23.917Z,95849.78
2023-01-08T09:59:56.221Z,95801.50
2023-01-08T10:02:29.133Z,95758.38
2023-01-08T10:05:03.167Z,95753.13
2023-01-08T10:07:35.341Z,95802.44
2023-01-08T10:10:17.039Z,95748.41
2023-01-08T10:12:55.982Z,95774.63
2023-01-08T10:15:26.895Z,95786.88
2023-01-08T10:18:06.149Z,95758.47
2023-01-08T10:20:41.882Z,95741.94
2023-01-08T10:35:08.071Z,95699.31
2023-01-08T10:37:42.923Z,95696.03
2023-01-08T10:40:25.923Z,95736.06
2023-01-08T10:42:57.454Z,95711.75
2023-01-08T10:45:29.918Z,95764.50
2023-01-08T10:48:03.945Z,95731.22
2023-01-08T10:50:37.329Z,95750.28
2023-01-08T10:53:07.689Z,95717.91
2023-01-08T11:04:23.676Z,95695.00
2023-01-08T11:07:00.149Z,95721.81
2023-01-08T11:12:36.157Z,95773.81
2023-01-08T11:15:25.402Z,95758.81
2023-01-08T11:17:55.237Z,95698.88
2023-01-08T11:20:30.828Z,95661.66
2023-01-08T11:23:08.371Z,95668.09
2023-01-08T11:25:37.579Z,95659.53
2023-01-08T11:28:13.193Z,95720.59
2023-01-08T11:34:33.382Z,95771.50
2023-01-08T11:37:06.871Z,95695.44
2023-01-08T11:39:40.335Z,95738.75
2023-01-08T11:42:21.507Z,95713.63
2023-01-08T11:45:04.886Z,95726.66
2023-01-08T11:48:05.762Z,95703.09
2023-01-08T11:50:41.477Z,95736.78
2023-01-08T11:53:24.499Z,95761.75
2023-01-08T11:56:09.261Z,95697.69
2023-01-08T11:58:52.197Z,95667.50
2023-01-08T12:01:33.800Z,95680.66
2023-01-08T12:04:30.590Z,95698.47
2023-01-08T12:07:10.166Z,95648.50
2023-01-08T12:09:43.176Z,95707.41
2023-01-08T12:12:28.137Z,95616.13
2023-01-08T12:15:08.540Z,95702.03
2023-01-08T12:19:07.888Z,95607.38
2023-01-08T12:21:51.904Z,95695.28
2023-01-08T12:24:41.185Z,95631.75
2023-01-08T12:27:17.734Z,95614.69
2023-01-08T13:16:17.875Z,95601.09
2023-01-08T13:42:09.658Z,95632.22
2023-01-08T14:06:49.422Z,95530.50
2023-01-08T14:18:21.511Z,95562.66
2023-01-08T14:25:12.565Z,95591.97
2023-01-08T15:01:54.510Z,95586.03
2023-01-08T15:31:06.809Z,95517.03
2023-01-08T15:38:42.958Z,95545.91
2023-01-08T16:35:06.945Z,95469.50
2023-01-08T17:00:52.854Z,95464.91
2023-01-08T17:04:08.217Z,95435.56
2023-01-08T17:07:40.850Z,95356.75
2023-01-08T17:20:07.332Z,95413.63
2023-01-08T17:22:37.391Z,95410.81
2023-01-08T17:25:07.015Z,95399.00
2023-01-08T17:27:38.660Z,95345.13
2023-01-08T17:30:14.631Z,95338.09
2023-01-08T17:32:52.494Z,95415.19
2023-01-08T17:35:50.187Z,95359.59
2023-01-08T17:38:25.120Z,95314.31
2023-01-08T17:45:56.697Z,95381.91
2023-01-08T17:49:20.640Z,95295.97
2023-01-08T17:52:05.299Z,95272.44
2023-01-08T17:54:34.367Z,95312.00
2023-01-08T17:57:03.026Z,95308.41
2023-01-08T17:59:31.662Z,95356.06
2023-01-08T18:02:00.385Z,95348.72
2023-01-08T18:05:20.576Z,95400.91
2023-01-08T18:08:53.540Z,95391.19
2023-01-08T18:19:44.670Z,95387.56
2023-01-08T18:22:13.169Z,95385.69
2023-01-08T18:24:42.240Z,95386.53
2023-01-08T18:27:10.730Z,95336.00
2023-01-08T18:29:39.929Z,95276.50
2023-01-08T18:32:08.478Z,95299.00
2023-01-08T18:34:43.001Z,95310.53
2023-01-08T18:37:50.959Z,95332.03
2023-01-08T18:40:20.312Z,95265.06
2023-01-08T18:42:52.150Z,95348.94
2023-01-08T18:45:53.376Z,95289.81
2023-01-08T18:53:02.541Z,95249.16
2023-01-08T18:56:40.555Z,95204.59
2023-01-08T19:00:27.296Z,95198.69
2023-01-08T19:03:36.776Z,95235.94
2023-01-08T19:07:34.098Z,95279.00
2023-01-08T19:10:27.911Z,95288.38
2023-01-08T19:13:09.860Z,95242.25
2023-01-08T19:15:47.883Z,95239.97
2023-01-08T19:18:21.520Z,95188.50
2023-01-08T19:20:55.712Z,95218.38
2023-01-08T19:23:36.310Z,95261.13
2023-01-08T19:26:28.001Z,95260.63
2023-01-08T19:29:39.923Z,95254.59
2023-01-08T19:32:28.487Z,95175.34
2023-01-08T19:35:02.831Z,95227.63
2023-01-08T19:37:33.516Z,95205.22
2023-01-08T19:40:09.030Z,95177.47
2023-01-08T19:46:28.916Z,95171.91
2023-01-08T19:49:17.755Z,95137.31
2023-01-08T19:51:54.819Z,95130.19
2023-01-08T19:54:30.029Z,95199.34
2023-01-08T19:56:58.545Z,95173.13
2023-01-08T19:59:29.065Z,95210.19
2023-01-08T20:01:57.521Z,95199.25
2023-01-08T20:04:26.732Z,95204.97
2023-01-08T20:06:57.613Z,95187.94
2023-01-08T20:09:29.127Z,95183.50
2023-01-08T20:11:58.297Z,95183.50
2023-01-08T20:14:26.603Z,95171.84
2023-01-08T20:16:56.673Z,95162.53
2023-01-08T20:19:30.605Z,95171.38
2023-01-08T20:22:04.839Z,95104.47
2023-01-08T20:25:06.673Z,95068.81
2023-01-08T20:28:54.346Z,95163.22
2023-01-08T20:31:26.172Z,95094.44
2023-01-08T20:34:02.027Z,95130.34
2023-01-08T20:36:33.855Z,95074.53
2023-01-08T20:39:11.968Z,95066.25
2023-01-08T20:42:00.884Z,95078.38
2023-01-08T20:44:53.172Z,95123.94
2023-01-08T20:47:21.959Z,95059.16
2023-01-08T20:50:12.309Z,95102.97
2023-01-08T20:52:51.690Z,95122.06
2023-01-08T20:55:32.659Z,95061.00
2023-01-08T20:58:24.215Z,95116.72
2023-01-08T21:01:31.123Z,95114.59
2023-01-08T21:04:26.868Z,95101.44
2023-01-08T21:07:28.347Z,95083.50
2023-01-08T21:10:35.413Z,95074.66
2023-01-08T21:13:50.017Z,95057.41
2023-01-08T21:17:01.581Z,95008.59
2023-01-08T21:19:43.988Z,95021.66
2023-01-08T21:22:13.852Z,95040.88
2023-01-08T21:24:43.379Z,95088.63
2023-01-08T21:27:11.751Z,95084.19
2023-01-08T21:29:40.597Z,95091.88
2023-01-08T21:32:08.916Z,95087.44
2023-01-08T21:34:37.671Z,95089.88
2023-01-08T21:37:08.622Z,95095.94
2023-01-08T21:47:19.224Z,95085.22
2023-01-08T21:50:14.404Z,95065.44
2023-01-08T21:53:17.318Z,95061.25
2023-01-08T21:56:16.554Z,95073.56
2023-01-08T21:59:00.127Z,95057.41
2023-01-08T22:01:36.880Z,95061.81
2023-01-08T22:04:14.794Z,95051.91
2023-01-08T22:06:43.815Z,95026.75
2023-01-08T22:12:25.976Z,95006.03
2023-01-08T22:14:55.203Z,94964.22
2023-01-08T22:17:30.773Z,94996.72
2023-01-08T22:20:01.324Z,95031.75
2023-01-08T22:22:30.256Z,95012.06
2023-01-08T22:25:00.001Z,95030.47
2023-01-08T22:27:30.367Z,94962.81
2023-01-08T22:29:59.791Z,94980.59
2023-01-08T23:01:26.352Z,94963.00
2023-01-08T23:14:53.951Z,94837.81
2023-01-08T23:55:05.242Z,94772.44
